ESNN/SDL METAR and TAF weather

Enter ICAO airport designator
Station Type Date Time Source
ESNN METAR 2019/10/20 18:50 UTC NOAA

ESNN 201850Z 33010KT 9999 SCT013 BKN015 OVC043 01/01 Q1015


Station Type Date Time Source
ESNN Decoded METAR 2019/10/20 18:50 UTC NOAA

Sundsvall-Harnosand Flygplats, Sweden (ESNN) 62-32N 017-27E 10M
Oct 20, 2019 - 02:50 PM EDT / 2019.10.20 1850 UTC
Wind: from the NNW (330 degrees) at 12 MPH (10 KT):0
Visibility: greater than 7 mile(s):0
Sky conditions: overcast
Temperature: 33 F (1 C)
Windchill: 24 F (-4 C):1
Dew Point: 33 F (1 C)
Relative Humidity: 100%
Pressure (altimeter): 29.97 in. Hg (1015 hPa)
ob: ESNN 201850Z 33010KT 9999 SCT013 BKN015 OVC043 01/01 Q1015
cycle: 19

Station Type Date Time Source
ESNN TAF 2016/05/29 09:33 UTC NOAA

TAF TAF ESNN 290830Z 2909/3018 07006KT 9999 SCT045
BECMG 2913/2915 14010KT

Example: see airport list